Terminal Aerodrome Forecast
Issued by NWS Cleveland, OH

Home | Current Version | Previous Version | Text Only | Print | Product List | Glossary On
Versions: 1 2 3 4 5 6 7 8 9 10 11 12 13 14 15
887
FTUS41 KCLE 211131
TAFYNG
TAF
KYNG 211131Z 2112/2212 14003KT P6SM SCT250
     FM212200 35006KT P6SM BKN200
     FM220600 06005KT P6SM SCT120=

USA.gov is the U.S. government's official web portal to all federal, state and local government web resources and services.